Mount Pleasant, UT

10:50 AM MDT on July 24, 2014 (GMT -0600)
KUTSPRIN7 Elev 5843 ft | 39.48 °N, 111.49 °W | Change Station

Current weather conditions updated 5 minutes ago

Partly Cloudy
Partly Cloudy
81.8 °F
Feels Like 81 °F
N
1.0
Wind Variable Wind from NNW
Gusts 5.0 mph

Today is forecast to be nearly the same temperature as yesterday.

Today
High -- | Low -- °F
--% Chance of Precip.
Yesterday
High -- | Low -- °F
Precip. -- in
6:18 AM 8:46 PM
Waning Crescent, 5% visible
Pressure 29.96 in
Visibility 10.0 miles
Clouds Few 11000 ft
Heat Index 81 °F
Dew Point 50 °F
Humidity 33%
Rainfall 0.00 in
Snow Depth 0 in , 0 in
UV 2.5 out of 12
Pollen 5.60 out of 12
Air Quality Not available.
Flu Activity Not available.
METAR KPUC 241553Z AUTO VRB04KT 10SM FEW110 24/12 A3028 RMK AO2 LTG DSNT NE AND E RAB02E12 TSB14E33 SLP143 P0000 T02440122

More Conditions Fewer Conditions

Pressure 29.96 in
Visibility 10.0 miles
Clouds Few 11000 ft
Heat Index 81 °F
Dew Point 50 °F
Humidity 33%
Rainfall 0.00 in
Snow Depth 0 in , 0 in
UV 2.5 out of 12
Pollen 5.60 out of 12
Air Quality Not available.
Flu Activity Not available.
METAR KPUC 241553Z AUTO VRB04KT 10SM FEW110 24/12 A3028 RMK AO2 LTG DSNT NE AND E RAB02E12 TSB14E33 SLP143 P0000 T02440122

More Conditions Fewer Conditions

10-Day Weather Forecast

Almanac

Astronomy

Jul. 24, 2014 Rise Set
Actual Time 6:18 AM MDT 8:46 PM MDT
Civil Twilight 5:47 AM MDT 9:16 PM MDT
Nautical Twilight 5:09 AM MDT 9:54 PM MDT
Astronomical Twilight 4:26 AM MDT 10:37 PM MDT
Moon 4:29 AM MDT 7:03 PM MDT
Length of Visible Light 15h 29m
Length of Day
14h 27m
Tomorrow will be 1m 42s shorter.
Waning Crescent, 5% of the Moon is Illuminated
Today
Waning Crescent
Jul 26
New
Aug 3
First Quarter
Aug 10
Full
Aug 17
Last Quarter

Today's Extremes

State Highs State Lows

Community

WunderPhotos

Upload Photos

1,737,062 photos uploaded!

Nearby

Snow Depth

Station Depth Elevation
Red Pine Ridge 0 in 9200 ft
Seeley Creek 0 in 10000 ft
Clear Creek #2 0 in 8300 ft
Strawberry Divide 0 in 8400 ft
Daniels-Strawberry 0 in 8000 ft

Earthquake Activity

City Distance Mag. Time & Date
No recent earthquake activity has been reported nearby.
Minimum magnitude displayed is 2.5.

Coastal Water Temperatures

Place Temperature
No Stations Reporting

Nearby Weather Stations

Station Location Temp. Heat Index Dew Point Humidity Wind Precip. Elev Updated Type
Spring City, UT 81.8 °F 81 °F 50 °F 33% NNW  at  1.0 mph 0.00 in / hr 5843 ft 10:45 AM MDT Normal
MesoWest EPHRAIM , Chester, UT 76 °F 78 °F 47 °F 36% ESE  at  4 mph 0.00 in / hr 5503 ft 9:00 AM MDT MADIS

Show More Stations Show Fewer Stations